createdAt,value
2019-03-23T00:02:01.699Z,47.30
2019-03-23T00:04:31.335Z,50.20
2019-03-23T00:07:00.946Z,44.85
2019-03-23T00:09:30.940Z,48.23
2019-03-23T00:12:00.648Z,49.63
2019-03-23T00:14:30.295Z,51.45
2019-03-23T00:16:59.902Z,49.70
2019-03-23T00:19:29.498Z,50.55
2019-03-23T00:21:59.160Z,48.23
2019-03-23T00:24:29.076Z,50.83
2019-03-23T00:26:58.709Z,48.13
2019-03-23T00:29:28.326Z,47.70
2019-03-23T00:31:57.999Z,51.77
2019-03-23T00:34:27.644Z,55.90
2019-03-23T00:36:57.354Z,55.35
2019-03-23T00:39:27.359Z,54.93
2019-03-23T00:41:57.072Z,49.35
2019-03-23T00:44:26.695Z,54.95
2019-03-23T00:46:56.686Z,49.38
2019-03-23T00:49:26.311Z,49.58
2019-03-23T00:51:56.013Z,52.33
2019-03-23T00:54:25.693Z,56.35
2019-03-23T00:56:55.322Z,52.40
2019-03-23T00:59:24.945Z,49.08
2019-03-23T01:01:54.660Z,50.52
2019-03-23T01:04:24.290Z,55.73
2019-03-23T01:06:53.967Z,45.10
2019-03-23T01:09:23.602Z,55.30
2019-03-23T01:11:53.461Z,48.78
2019-03-23T01:14:23.126Z,51.85
2019-03-23T01:16:53.007Z,54.50
2019-03-23T01:19:22.624Z,52.48
2019-03-23T01:21:52.234Z,53.33
2019-03-23T01:24:22.560Z,50.40
2019-03-23T01:26:52.442Z,53.80
2019-03-23T01:29:22.069Z,53.40
2019-03-23T01:31:51.741Z,54.40
2019-03-23T01:34:21.805Z,51.23
2019-03-23T01:36:51.514Z,49.95
2019-03-23T01:39:21.134Z,53.45
2019-03-23T01:41:54.014Z,55.05
2019-03-23T01:44:23.581Z,58.33
2019-03-23T01:46:53.192Z,53.13
2019-03-23T01:49:22.826Z,51.08
2019-03-23T01:51:52.766Z,52.55
2019-03-23T01:54:23.958Z,59.35
2019-03-23T01:56:53.600Z,54.67
2019-03-23T01:59:23.586Z,48.45
2019-03-23T02:01:53.196Z,54.63
2019-03-23T02:04:22.820Z,56.10
2019-03-23T02:06:52.710Z,52.55
2019-03-23T02:09:22.338Z,56.98
2019-03-23T02:11:51.947Z,55.20
2019-03-23T02:14:36.074Z,52.90
2019-03-23T02:17:00.860Z,55.08
2019-03-23T02:19:30.470Z,51.40
2019-03-23T02:22:00.087Z,55.35
2019-03-23T02:24:29.712Z,52.05
2019-03-23T02:26:59.403Z,50.60
2019-03-23T02:29:29.034Z,53.08
2019-03-23T02:31:58.752Z,50.70
2019-03-23T02:34:28.372Z,53.05
2019-03-23T02:36:57.972Z,53.68
2019-03-23T02:39:27.964Z,51.50
2019-03-23T02:41:57.586Z,58.45
2019-03-23T02:44:27.478Z,54.65
2019-03-23T02:46:57.080Z,55.73
2019-03-23T02:49:26.712Z,54.93
2019-03-23T02:51:56.342Z,51.13
2019-03-23T02:54:25.970Z,55.15
2019-03-23T02:56:55.564Z,51.63
2019-03-23T02:59:25.287Z,55.12
2019-03-23T03:01:54.893Z,53.42
2019-03-23T03:04:24.538Z,52.23
2019-03-23T03:06:54.176Z,48.05
2019-03-23T03:09:23.773Z,49.83
2019-03-23T03:11:53.417Z,54.60
2019-03-23T03:14:23.037Z,50.10
2019-03-23T03:16:52.763Z,49.27
2019-03-23T03:19:22.417Z,51.18
2019-03-23T03:21:52.121Z,48.85
2019-03-23T03:24:21.734Z,52.53
2019-03-23T03:26:51.423Z,53.85
2019-03-23T03:29:21.045Z,56.77
2019-03-23T03:31:50.649Z,56.83
2019-03-23T03:34:20.276Z,52.95
2019-03-23T03:36:49.964Z,48.33
2019-03-23T03:39:19.676Z,52.03
2019-03-23T03:41:49.301Z,54.23
2019-03-23T03:44:18.916Z,50.63
2019-03-23T03:46:48.706Z,51.80
2019-03-23T03:49:18.290Z,57.00
2019-03-23T03:51:47.906Z,53.42
2019-03-23T03:54:17.792Z,52.70
2019-03-23T03:56:47.685Z,48.38
2019-03-23T03:59:17.301Z,49.63
2019-03-23T04:01:46.939Z,52.23
2019-03-23T04:04:16.549Z,49.42
2019-03-23T04:06:46.261Z,51.02
2019-03-23T04:09:15.968Z,52.53
2019-03-23T04:11:45.652Z,47.40
2019-03-23T04:14:15.553Z,49.63
2019-03-23T04:16:45.172Z,48.63
2019-03-23T04:19:14.802Z,46.53
2019-03-23T04:21:44.569Z,44.40
2019-03-23T04:24:14.289Z,46.75
2019-03-23T04:27:04.733Z,44.85
2019-03-23T04:32:59.095Z,43.30
2019-03-23T04:35:22.176Z,45.05
2019-03-23T04:37:51.782Z,49.65
2019-03-23T04:40:21.412Z,42.13
2019-03-23T04:42:51.046Z,47.15
2019-03-23T04:45:20.650Z,43.28
2019-03-23T04:47:50.272Z,44.00
2019-03-23T04:50:19.888Z,40.80
2019-03-23T04:52:49.505Z,39.38
2019-03-23T04:55:19.119Z,42.90
2019-03-23T04:57:48.755Z,37.08
2019-03-23T05:00:20.470Z,39.15
2019-03-23T05:02:50.099Z,36.42
2019-03-23T05:05:19.715Z,42.90
2019-03-23T05:07:49.354Z,38.90
2019-03-23T05:10:18.972Z,41.58
2019-03-23T05:12:48.597Z,39.13
2019-03-23T05:15:18.209Z,41.85
2019-03-23T05:17:47.839Z,43.68
2019-03-23T05:20:32.398Z,40.15
2019-03-23T05:23:02.026Z,42.05
2019-03-23T05:25:31.980Z,44.35
2019-03-23T05:28:01.691Z,39.78
2019-03-23T05:30:31.290Z,39.60
2019-03-23T05:33:01.322Z,37.78
2019-03-23T05:35:30.929Z,40.25
2019-03-23T05:38:00.804Z,39.23
2019-03-23T05:40:30.741Z,39.20
2019-03-23T05:43:00.448Z,40.48
2019-03-23T05:45:30.172Z,39.08
2019-03-23T05:47:59.903Z,43.70
2019-03-23T05:50:29.513Z,38.85
2019-03-23T05:52:59.223Z,38.17
2019-03-23T05:55:28.847Z,40.88
2019-03-23T05:57:58.560Z,40.98
2019-03-23T06:00:28.273Z,40.52
2019-03-23T06:02:57.997Z,39.08
2019-03-23T06:05:27.696Z,42.98
2019-03-23T06:07:57.669Z,43.58
2019-03-23T06:10:27.683Z,43.45
2019-03-23T06:12:57.291Z,44.03
2019-03-23T06:15:26.916Z,36.75
2019-03-23T06:17:56.789Z,41.05
2019-03-23T06:20:26.497Z,43.55
2019-03-23T06:22:56.171Z,41.85
2019-03-23T06:25:25.842Z,40.83
2019-03-23T06:27:56.302Z,40.67
2019-03-23T06:30:25.914Z,39.30
2019-03-23T06:32:55.548Z,46.35
2019-03-23T06:35:25.174Z,40.25
2019-03-23T06:37:54.807Z,41.20
2019-03-23T06:40:24.403Z,40.85
2019-03-23T06:42:59.689Z,38.58
2019-03-23T06:45:25.471Z,38.88
2019-03-23T06:47:55.120Z,48.35
2019-03-23T06:50:24.997Z,43.52
2019-03-23T06:52:54.724Z,39.00
2019-03-23T06:55:24.391Z,36.83
2019-03-23T06:57:54.022Z,33.28
2019-03-23T07:00:23.639Z,37.15
2019-03-23T07:02:53.350Z,46.98
2019-03-23T07:05:23.375Z,39.58
2019-03-23T07:07:53.062Z,36.10
2019-03-23T07:10:22.983Z,40.05
2019-03-23T07:12:52.598Z,40.33
2019-03-23T07:15:22.315Z,38.10
2019-03-23T07:17:51.999Z,35.10
2019-03-23T07:20:21.635Z,38.67
2019-03-23T07:22:51.257Z,30.55
2019-03-23T07:25:20.855Z,37.08
2019-03-23T07:27:50.834Z,39.90
2019-03-23T07:30:20.503Z,40.48
2019-03-23T07:32:50.134Z,39.42
2019-03-23T07:35:19.924Z,39.60
2019-03-23T07:37:49.621Z,43.55
2019-03-23T07:40:19.671Z,35.25
2019-03-23T07:42:49.288Z,38.90
2019-03-23T07:45:18.961Z,30.72
2019-03-23T07:47:49.009Z,37.35
2019-03-23T07:50:18.690Z,29.20
2019-03-23T07:52:48.340Z,36.25
2019-03-23T07:55:18.184Z,42.53
2019-03-23T07:57:48.171Z,35.90
2019-03-23T08:00:24.347Z,38.75
2019-03-23T08:02:54.052Z,37.70
2019-03-23T08:05:23.808Z,36.93
2019-03-23T08:07:53.445Z,34.67
2019-03-23T08:10:31.711Z,34.30
2019-03-23T08:13:04.346Z,38.75
2019-03-23T08:15:34.755Z,39.75
2019-03-23T08:18:04.543Z,34.55
2019-03-23T08:20:34.242Z,34.08
2019-03-23T08:23:03.867Z,34.75
2019-03-23T08:25:34.273Z,32.13
2019-03-23T08:28:04.016Z,33.85
2019-03-23T08:30:33.723Z,32.05
2019-03-23T08:33:03.358Z,36.68
2019-03-23T08:35:33.062Z,30.88
2019-03-23T08:38:02.751Z,32.98
2019-03-23T08:40:32.551Z,31.15
2019-03-23T08:43:02.298Z,27.90
2019-03-23T08:45:32.207Z,28.25
2019-03-23T08:48:01.883Z,31.25
2019-03-23T08:50:31.505Z,33.13
2019-03-23T08:53:01.243Z,33.67
2019-03-23T08:55:31.173Z,28.73
2019-03-23T08:58:00.891Z,30.20
2019-03-23T09:00:30.511Z,29.30
2019-03-23T09:03:00.146Z,32.53
2019-03-23T09:05:29.767Z,28.80
2019-03-23T09:07:59.428Z,32.63
2019-03-23T09:10:29.045Z,28.25
2019-03-23T09:12:59.023Z,23.55
2019-03-23T09:15:28.736Z,28.07
2019-03-23T09:17:58.394Z,27.02
2019-03-23T09:20:29.561Z,25.85
2019-03-23T09:22:59.462Z,27.17
2019-03-23T09:25:29.117Z,20.23
2019-03-23T09:27:58.872Z,24.35
2019-03-23T09:30:28.461Z,28.32
2019-03-23T09:32:58.080Z,24.15
2019-03-23T09:35:27.730Z,22.62
2019-03-23T09:37:57.358Z,18.20
2019-03-23T09:40:27.266Z,21.50
2019-03-23T09:42:57.179Z,18.87
2019-03-23T09:45:26.906Z,18.87
2019-03-23T09:47:57.019Z,19.05
2019-03-23T09:50:26.630Z,16.57
2019-03-23T09:52:56.251Z,12.58
2019-03-23T09:55:25.868Z,12.40
2019-03-23T09:57:55.508Z,16.25
2019-03-23T10:00:25.469Z,16.17
2019-03-23T10:02:55.091Z,15.90
2019-03-23T10:05:24.704Z,21.55
2019-03-23T10:07:54.422Z,15.00
2019-03-23T10:10:25.268Z,14.55
2019-03-23T10:12:54.931Z,20.43
2019-03-23T10:15:24.563Z,15.65
2019-03-23T10:17:54.170Z,13.10
2019-03-23T10:20:23.801Z,16.50
2019-03-23T10:22:53.420Z,15.18
2019-03-23T10:25:23.108Z,16.48
2019-03-23T10:27:52.729Z,12.53
2019-03-23T10:30:24.554Z,15.45
2019-03-23T10:32:54.001Z,14.63
2019-03-23T10:35:23.905Z,10.00
2019-03-23T10:37:53.562Z,10.63
2019-03-23T10:40:32.079Z,15.38
2019-03-23T10:42:54.555Z,12.00
2019-03-23T10:45:24.326Z,10.78
2019-03-23T10:50:23.682Z,17.52
2019-03-23T10:52:53.577Z,11.95
2019-03-23T10:55:23.193Z,13.58
2019-03-23T10:57:53.074Z,12.75
2019-03-23T11:00:22.705Z,11.95
2019-03-23T11:02:52.360Z,22.30
2019-03-23T11:05:22.263Z,12.98
2019-03-23T11:07:51.973Z,23.45
2019-03-23T11:10:21.667Z,18.37
2019-03-23T11:12:53.212Z,18.20
2019-03-23T11:15:22.807Z,13.32
2019-03-23T11:17:52.494Z,15.18
2019-03-23T11:20:22.177Z,15.53
2019-03-23T11:22:51.815Z,15.80
2019-03-23T11:25:21.470Z,11.73
2019-03-23T11:27:51.116Z,18.98
2019-03-23T11:30:20.781Z,17.62
2019-03-23T11:32:50.433Z,15.98
2019-03-23T11:35:20.381Z,15.30
2019-03-23T11:37:50.269Z,17.42
2019-03-23T11:40:20.013Z,14.95
2019-03-23T11:42:52.952Z,20.30
2019-03-23T11:45:22.320Z,16.57
2019-03-23T11:47:51.959Z,13.55
2019-03-23T11:50:21.631Z,17.90
2019-03-23T11:52:51.607Z,16.12
2019-03-23T11:55:21.187Z,16.73
2019-03-23T11:57:50.837Z,17.67
2019-03-23T12:00:21.079Z,13.43
2019-03-23T12:02:50.690Z,17.67
2019-03-23T12:05:20.341Z,14.03
2019-03-23T12:07:50.088Z,11.30
2019-03-23T12:10:19.751Z,16.32
2019-03-23T12:12:49.521Z,19.12
2019-03-23T12:15:19.230Z,16.42
2019-03-23T12:17:50.478Z,14.75
2019-03-23T12:20:20.186Z,16.80
2019-03-23T12:22:49.823Z,14.78
2019-03-23T12:25:19.455Z,11.90
2019-03-23T12:27:49.067Z,16.73
2019-03-23T12:30:20.306Z,13.40
2019-03-23T12:32:49.908Z,10.93
2019-03-23T12:35:19.593Z,14.58
2019-03-23T12:37:49.483Z,15.05
2019-03-23T12:40:19.143Z,12.70
2019-03-23T12:42:48.848Z,13.48
2019-03-23T12:45:18.461Z,15.15
2019-03-23T12:47:48.434Z,16.52
2019-03-23T12:50:18.938Z,15.10
2019-03-23T12:52:48.549Z,14.25
2019-03-23T12:55:18.286Z,13.90
2019-03-23T12:57:47.978Z,12.82
2019-03-23T13:00:18.009Z,13.90
2019-03-23T13:02:47.683Z,12.53
2019-03-23T13:05:17.720Z,25.00
2019-03-23T13:07:47.693Z,19.07
2019-03-23T13:10:17.300Z,20.27
2019-03-23T13:12:46.948Z,12.95
2019-03-23T13:15:17.524Z,23.02
2019-03-23T13:17:47.152Z,14.00
2019-03-23T13:20:16.954Z,11.48
2019-03-23T13:22:46.549Z,18.92
2019-03-23T13:25:16.266Z,14.30
2019-03-23T13:27:46.140Z,13.68
2019-03-23T13:30:18.330Z,16.07
2019-03-23T13:32:48.194Z,16.85
2019-03-23T13:35:18.097Z,20.12
2019-03-23T13:37:47.662Z,11.78
2019-03-23T13:40:18.067Z,11.20
2019-03-23T13:42:47.842Z,16.25
2019-03-23T13:45:17.883Z,13.85
2019-03-23T13:47:47.752Z,11.57
2019-03-23T13:50:26.959Z,10.72
2019-03-23T13:52:56.844Z,13.35
2019-03-23T13:55:33.617Z,17.05
2019-03-23T13:58:14.904Z,11.45
2019-03-23T14:00:45.323Z,11.93
2019-03-23T14:03:14.939Z,10.28
2019-03-23T14:05:44.868Z,13.72
2019-03-23T14:08:14.888Z,11.40
2019-03-23T14:10:44.504Z,8.78
2019-03-23T14:13:14.409Z,11.65
2019-03-23T14:15:44.381Z,9.35
2019-03-23T14:18:14.003Z,15.38
2019-03-23T14:20:43.925Z,9.35
2019-03-23T14:23:13.568Z,11.28
2019-03-23T14:25:43.203Z,11.88
2019-03-23T14:28:12.839Z,9.08
2019-03-23T14:30:42.582Z,12.70
2019-03-23T14:33:12.202Z,11.75
2019-03-23T14:35:48.046Z,11.22
2019-03-23T14:38:17.662Z,15.93
2019-03-23T14:40:47.553Z,12.90
2019-03-23T14:43:17.160Z,13.35
2019-03-23T14:45:46.810Z,13.68
2019-03-23T14:48:16.415Z,11.90
2019-03-23T14:50:46.046Z,12.98
2019-03-23T14:53:15.761Z,11.08
2019-03-23T14:55:47.236Z,23.47
2019-03-23T14:58:16.901Z,14.90
2019-03-23T15:00:46.539Z,12.43
2019-03-23T15:03:16.163Z,13.03
2019-03-23T15:05:45.928Z,20.55
2019-03-23T15:08:15.553Z,13.38
2019-03-23T15:10:45.162Z,12.05
2019-03-23T15:13:14.821Z,14.70
2019-03-23T15:15:44.448Z,16.80
2019-03-23T15:18:14.147Z,10.63
2019-03-23T15:20:43.799Z,14.75
2019-03-23T15:23:14.299Z,15.13
2019-03-23T15:25:44.021Z,14.75
2019-03-23T15:28:14.002Z,13.93
2019-03-23T15:30:44.015Z,16.23
2019-03-23T15:33:13.888Z,15.38
2019-03-23T15:35:43.504Z,13.03
2019-03-23T15:38:13.151Z,14.55
2019-03-23T15:40:42.763Z,15.18
2019-03-23T15:43:12.463Z,10.53
2019-03-23T15:45:42.107Z,17.57
2019-03-23T15:48:11.714Z,13.53
2019-03-23T15:50:41.701Z,12.15
2019-03-23T15:53:11.387Z,15.60
2019-03-23T15:55:40.999Z,15.55
2019-03-23T15:58:10.628Z,14.45
2019-03-23T16:00:40.360Z,11.50
2019-03-23T16:03:09.991Z,12.73
2019-03-23T16:05:39.621Z,10.45
2019-03-23T16:08:09.556Z,12.18
2019-03-23T16:10:39.176Z,9.25
2019-03-23T16:13:08.872Z,12.60
2019-03-23T16:15:39.101Z,16.12
2019-03-23T16:18:08.727Z,12.28
2019-03-23T16:20:38.344Z,15.13
2019-03-23T16:23:07.964Z,20.48
2019-03-23T16:25:37.575Z,10.78
2019-03-23T16:28:07.299Z,12.63
2019-03-23T16:30:36.953Z,20.50
2019-03-23T16:33:06.737Z,12.45
2019-03-23T16:35:36.363Z,8.95
2019-03-23T16:38:06.046Z,9.68
2019-03-23T16:40:35.678Z,11.80
2019-03-23T16:43:06.301Z,11.28
2019-03-23T16:45:36.096Z,11.70
2019-03-23T16:48:05.785Z,12.15
2019-03-23T16:50:35.408Z,21.68
2019-03-23T16:53:05.033Z,13.15
2019-03-23T16:55:34.637Z,14.50
2019-03-23T16:58:04.311Z,13.18
2019-03-23T17:00:36.886Z,17.57
2019-03-23T17:03:07.920Z,13.05
2019-03-23T17:05:37.542Z,8.78
2019-03-23T17:08:07.633Z,14.98
2019-03-23T17:10:37.343Z,11.75
2019-03-23T17:13:07.135Z,7.40
2019-03-23T17:15:36.755Z,16.80
2019-03-23T17:18:06.392Z,16.30
2019-03-23T17:20:35.997Z,15.08
2019-03-23T17:23:05.626Z,16.57
2019-03-23T17:25:37.634Z,13.08
2019-03-23T17:28:06.763Z,14.40
2019-03-23T17:30:36.401Z,12.65
2019-03-23T17:33:06.015Z,14.30
2019-03-23T17:35:35.935Z,11.25
2019-03-23T17:38:05.867Z,10.90
2019-03-23T17:40:35.491Z,20.92
2019-03-23T17:43:06.393Z,15.70
2019-03-23T17:45:36.056Z,13.20
2019-03-23T17:48:05.683Z,19.35
2019-03-23T17:50:35.287Z,17.30
2019-03-23T17:53:05.182Z,15.13
2019-03-23T17:55:34.776Z,16.95
2019-03-23T17:58:04.519Z,16.10
2019-03-23T18:00:34.390Z,18.00
2019-03-23T18:03:04.017Z,23.62
2019-03-23T18:05:33.605Z,13.40
2019-03-23T18:08:03.290Z,19.30
2019-03-23T18:10:32.901Z,19.62
2019-03-23T18:13:02.518Z,27.80
2019-03-23T18:15:32.206Z,18.85
2019-03-23T18:18:01.817Z,18.12
2019-03-23T18:20:31.658Z,16.90
2019-03-23T18:23:01.277Z,17.90
2019-03-23T18:25:30.898Z,25.60
2019-03-23T18:28:00.513Z,13.18
2019-03-23T18:30:45.742Z,13.25
2019-03-23T18:33:15.424Z,18.00
2019-03-23T18:35:45.041Z,15.38
2019-03-23T18:38:14.814Z,17.17
2019-03-23T18:40:44.472Z,16.23
2019-03-23T18:43:14.096Z,17.87
2019-03-23T18:45:43.729Z,16.25
2019-03-23T18:48:13.334Z,17.75
2019-03-23T18:50:43.019Z,20.70
2019-03-23T18:53:12.628Z,19.45
2019-03-23T18:55:42.235Z,22.55
2019-03-23T18:58:13.300Z,22.20
2019-03-23T19:00:44.111Z,16.20
2019-03-23T19:03:14.611Z,19.62
2019-03-23T19:05:45.311Z,19.90
2019-03-23T19:08:16.023Z,22.48
2019-03-23T19:10:46.914Z,20.10
2019-03-23T19:13:16.478Z,24.00
2019-03-23T19:15:46.183Z,22.67
2019-03-23T19:18:15.791Z,20.50
2019-03-23T19:20:45.483Z,15.55
2019-03-23T19:23:15.092Z,24.32
2019-03-23T19:25:44.714Z,16.17
2019-03-23T19:28:14.332Z,15.03
2019-03-23T19:30:44.005Z,21.97
2019-03-23T19:33:13.629Z,17.90
2019-03-23T19:35:43.250Z,24.25
2019-03-23T19:38:12.846Z,22.40
2019-03-23T19:40:42.459Z,16.60
2019-03-23T19:43:12.069Z,27.32
2019-03-23T19:45:41.687Z,17.57
2019-03-23T19:48:11.302Z,17.52
2019-03-23T19:50:41.370Z,22.42
2019-03-23T19:53:10.999Z,23.35
2019-03-23T19:55:40.710Z,18.55
2019-03-23T19:58:10.296Z,22.73
2019-03-23T20:00:39.894Z,21.17
2019-03-23T20:03:09.490Z,15.45
2019-03-23T20:05:39.098Z,22.30
2019-03-23T20:08:08.719Z,20.35
2019-03-23T20:10:38.384Z,17.92
2019-03-23T20:13:07.998Z,18.27
2019-03-23T20:15:37.640Z,23.00
2019-03-23T20:18:07.192Z,16.67
2019-03-23T20:20:36.813Z,28.07
2019-03-23T20:23:06.443Z,18.50
2019-03-23T20:25:36.124Z,17.30
2019-03-23T20:28:05.911Z,20.48
2019-03-23T20:30:37.067Z,19.48
2019-03-23T20:33:06.688Z,22.73
2019-03-23T20:35:36.301Z,16.93
2019-03-23T20:38:05.911Z,23.80
2019-03-23T20:40:35.511Z,21.85
2019-03-23T20:43:05.153Z,21.57
2019-03-23T20:45:34.739Z,19.75
2019-03-23T20:48:04.487Z,16.90
2019-03-23T20:50:34.926Z,22.82
2019-03-23T20:53:04.810Z,24.52
2019-03-23T20:55:34.409Z,21.85
2019-03-23T20:58:04.001Z,28.70
2019-03-23T21:00:33.611Z,20.12
2019-03-23T21:03:03.232Z,21.70
2019-03-23T21:05:34.214Z,16.93
2019-03-23T21:08:04.092Z,20.40
2019-03-23T21:10:33.689Z,23.00
2019-03-23T21:13:03.298Z,21.60
2019-03-23T21:15:32.980Z,30.12
2019-03-23T21:18:02.595Z,15.80
2019-03-23T21:20:32.186Z,24.35
2019-03-23T21:23:01.800Z,19.42
2019-03-23T21:25:31.512Z,20.68
2019-03-23T21:28:01.116Z,23.45
2019-03-23T21:30:30.717Z,20.27
2019-03-23T21:33:00.395Z,20.20
2019-03-23T21:35:29.981Z,23.47
2019-03-23T21:37:59.605Z,25.32
2019-03-23T21:40:29.212Z,21.42
2019-03-23T21:42:58.811Z,22.02
2019-03-23T21:45:28.413Z,24.37
2019-03-23T21:47:58.003Z,23.47
2019-03-23T21:50:27.619Z,19.80
2019-03-23T21:52:57.244Z,21.35
2019-03-23T21:55:26.834Z,16.87
2019-03-23T21:57:56.989Z,29.23
2019-03-23T22:00:35.522Z,21.90
2019-03-23T22:03:05.729Z,15.95
2019-03-23T22:05:35.559Z,16.75
2019-03-23T22:08:06.052Z,15.58
2019-03-23T22:10:35.635Z,25.62
2019-03-23T22:13:05.455Z,25.90
2019-03-23T22:15:35.053Z,21.42
2019-03-23T22:18:05.331Z,18.85
2019-03-23T22:20:34.887Z,25.35
2019-03-23T22:23:04.979Z,22.82
2019-03-23T22:25:50.552Z,21.57
2019-03-23T22:28:19.346Z,19.42
2019-03-23T22:30:48.957Z,18.82
2019-03-23T22:33:18.564Z,17.40
2019-03-23T22:35:48.417Z,24.12
2019-03-23T22:38:18.022Z,24.90
2019-03-23T22:40:47.637Z,22.60
2019-03-23T22:43:17.232Z,28.92
2019-03-23T22:45:46.851Z,22.45
2019-03-23T22:48:16.538Z,19.57
2019-03-23T22:50:46.138Z,20.23
2019-03-23T22:53:16.008Z,23.87
2019-03-23T22:55:45.868Z,20.65
2019-03-23T22:58:15.571Z,21.57
2019-03-23T23:00:49.786Z,26.15
2019-03-23T23:03:19.467Z,22.52
2019-03-23T23:05:49.054Z,19.37
2019-03-23T23:08:18.649Z,24.52
2019-03-23T23:10:48.373Z,30.25
2019-03-23T23:13:17.941Z,26.27
2019-03-23T23:15:47.670Z,31.30
2019-03-23T23:18:17.256Z,27.80
2019-03-23T23:20:46.939Z,24.45
2019-03-23T23:23:16.552Z,28.32
2019-03-23T23:25:46.153Z,23.50
2019-03-23T23:28:15.852Z,23.47
2019-03-23T23:30:45.568Z,25.35
2019-03-23T23:33:15.154Z,25.52
2019-03-23T23:35:44.869Z,26.25
2019-03-23T23:38:14.504Z,26.55
2019-03-23T23:40:44.108Z,25.88
2019-03-23T23:43:13.716Z,32.45
2019-03-23T23:45:43.323Z,35.10
2019-03-23T23:48:13.010Z,20.37
2019-03-23T23:50:42.604Z,21.25
2019-03-23T23:53:12.201Z,24.80
2019-03-23T23:55:41.929Z,18.98
2019-03-23T23:58:11.612Z,20.85
